sensor_id;sensor_type;location;lat;lon;timestamp;pressure;altitude;pressure_sealevel;temperature;humidity
21706;BME280;11014;53.076;18.208;2023-05-10T00:00:35;101733.81;;;11.02;44.07
21706;BME280;11014;53.076;18.208;2023-05-10T00:03:12;101722.44;;;11.00;44.06
21706;BME280;11014;53.076;18.208;2023-05-10T00:05:41;101734.22;;;10.99;44.26
21706;BME280;11014;53.076;18.208;2023-05-10T00:08:09;101737.13;;;10.97;44.14
21706;BME280;11014;53.076;18.208;2023-05-10T00:10:39;101730.28;;;10.95;44.52
21706;BME280;11014;53.076;18.208;2023-05-10T00:13:33;101728.19;;;10.90;44.41
21706;BME280;11014;53.076;18.208;2023-05-10T00:16:01;101728.22;;;10.84;44.42
21706;BME280;11014;53.076;18.208;2023-05-10T00:18:30;101729.63;;;10.80;44.43
21706;BME280;11014;53.076;18.208;2023-05-10T00:20:59;101725.72;;;10.76;44.61
21706;BME280;11014;53.076;18.208;2023-05-10T00:23:27;101716.41;;;10.71;44.86
21706;BME280;11014;53.076;18.208;2023-05-10T00:25:57;101715.78;;;10.69;44.75
21706;BME280;11014;53.076;18.208;2023-05-10T00:28:27;101713.72;;;10.65;44.97
21706;BME280;11014;53.076;18.208;2023-05-10T00:30:57;101712.47;;;10.61;45.03
21706;BME280;11014;53.076;18.208;2023-05-10T00:33:25;101716.78;;;10.55;44.88
21706;BME280;11014;53.076;18.208;2023-05-10T00:35:54;101721.94;;;10.50;45.38
21706;BME280;11014;53.076;18.208;2023-05-10T00:38:22;101712.66;;;10.46;45.44
21706;BME280;11014;53.076;18.208;2023-05-10T00:40:51;101714.09;;;10.42;45.32
21706;BME280;11014;53.076;18.208;2023-05-10T00:43:26;101705.81;;;10.37;45.69
21706;BME280;11014;53.076;18.208;2023-05-10T00:45:55;101709.13;;;10.33;45.74
21706;BME280;11014;53.076;18.208;2023-05-10T00:48:25;101708.47;;;10.31;45.87
21706;BME280;11014;53.076;18.208;2023-05-10T00:50:54;101705.38;;;10.27;45.98
21706;BME280;11014;53.076;18.208;2023-05-10T00:53:22;101698.75;;;10.23;45.91
21706;BME280;11014;53.076;18.208;2023-05-10T00:55:51;101699.13;;;10.20;45.95
21706;BME280;11014;53.076;18.208;2023-05-10T00:58:20;101700.59;;;10.16;46.42
21706;BME280;11014;53.076;18.208;2023-05-10T01:00:49;101696.25;;;10.15;46.10
21706;BME280;11014;53.076;18.208;2023-05-10T01:03:19;101703.66;;;10.13;46.17
21706;BME280;11014;53.076;18.208;2023-05-10T01:05:49;101691.00;;;10.07;46.29
21706;BME280;11014;53.076;18.208;2023-05-10T01:08:18;101693.09;;;10.05;46.36
21706;BME280;11014;53.076;18.208;2023-05-10T01:10:48;101705.84;;;10.03;46.50
21706;BME280;11014;53.076;18.208;2023-05-10T01:13:42;101694.50;;;10.01;46.75
21706;BME280;11014;53.076;18.208;2023-05-10T01:16:10;101697.97;;;9.95;46.72
21706;BME280;11014;53.076;18.208;2023-05-10T01:18:40;101688.69;;;9.91;46.79
21706;BME280;11014;53.076;18.208;2023-05-10T01:32:27;101690.22;;;9.66;47.35
21706;BME280;11014;53.076;18.208;2023-05-10T01:35:09;101681.31;;;9.65;47.20
21706;BME280;11014;53.076;18.208;2023-05-10T01:37:52;101681.31;;;9.59;47.64
21706;BME280;11014;53.076;18.208;2023-05-10T01:40:32;101681.03;;;9.53;47.80
21706;BME280;11014;53.076;18.208;2023-05-10T01:43:12;101674.00;;;9.46;48.16
21706;BME280;11014;53.076;18.208;2023-05-10T01:48:23;101683.41;;;9.35;48.32
21706;BME280;11014;53.076;18.208;2023-05-10T01:50:56;101681.34;;;9.31;48.46
21706;BME280;11014;53.076;18.208;2023-05-10T01:53:27;101686.19;;;9.48;47.90
21706;BME280;11014;53.076;18.208;2023-05-10T01:55:56;101680.28;;;9.25;48.03
21706;BME280;11014;53.076;18.208;2023-05-10T01:58:31;101673.63;;;9.21;48.67
21706;BME280;11014;53.076;18.208;2023-05-10T02:01:03;101673.59;;;9.15;48.91
21706;BME280;11014;53.076;18.208;2023-05-10T02:03:34;101677.50;;;9.12;49.01
21706;BME280;11014;53.076;18.208;2023-05-10T02:06:04;101664.66;;;9.08;49.31
21706;BME280;11014;53.076;18.208;2023-05-10T02:08:35;101664.25;;;9.04;49.25
21706;BME280;11014;53.076;18.208;2023-05-10T02:11:05;101654.09;;;9.00;49.36
21706;BME280;11014;53.076;18.208;2023-05-10T02:13:36;101659.03;;;8.96;49.68
21706;BME280;11014;53.076;18.208;2023-05-10T02:16:08;101662.09;;;8.93;49.71
21706;BME280;11014;53.076;18.208;2023-05-10T02:18:37;101659.81;;;8.90;49.74
21706;BME280;11014;53.076;18.208;2023-05-10T02:21:09;101647.41;;;8.89;49.75
21706;BME280;11014;53.076;18.208;2023-05-10T02:23:40;101652.53;;;8.84;49.95
21706;BME280;11014;53.076;18.208;2023-05-10T02:26:10;101644.25;;;8.79;50.46
21706;BME280;11014;53.076;18.208;2023-05-10T02:28:44;101650.00;;;8.76;50.24
21706;BME280;11014;53.076;18.208;2023-05-10T02:31:13;101652.44;;;8.71;50.31
21706;BME280;11014;53.076;18.208;2023-05-10T02:33:43;101656.50;;;8.67;50.37
21706;BME280;11014;53.076;18.208;2023-05-10T02:36:15;101650.06;;;8.61;50.58
21706;BME280;11014;53.076;18.208;2023-05-10T02:38:44;101646.97;;;8.58;50.97
21706;BME280;11014;53.076;18.208;2023-05-10T02:41:14;101648.16;;;8.55;50.78
21706;BME280;11014;53.076;18.208;2023-05-10T02:43:44;101646.06;;;8.51;51.16
21706;BME280;11014;53.076;18.208;2023-05-10T02:46:14;101649.13;;;8.48;51.26
21706;BME280;11014;53.076;18.208;2023-05-10T02:48:43;101644.34;;;8.43;51.23
21706;BME280;11014;53.076;18.208;2023-05-10T02:51:15;101649.88;;;8.42;51.26
21706;BME280;11014;53.076;18.208;2023-05-10T02:54:24;101646.81;;;8.45;51.59
21706;BME280;11014;53.076;18.208;2023-05-10T02:57:05;101644.94;;;8.39;51.47
21706;BME280;11014;53.076;18.208;2023-05-10T03:00:01;101652.56;;;8.42;51.84
21706;BME280;11014;53.076;18.208;2023-05-10T03:02:30;101661.13;;;8.30;51.54
21706;BME280;11014;53.076;18.208;2023-05-10T03:05:00;101654.28;;;8.28;51.93
21706;BME280;11014;53.076;18.208;2023-05-10T03:07:28;101656.16;;;8.27;51.80
21706;BME280;11014;53.076;18.208;2023-05-10T03:10:00;101656.94;;;8.28;52.00
21706;BME280;11014;53.076;18.208;2023-05-10T03:18:15;101657.78;;;8.28;52.07
21706;BME280;11014;53.076;18.208;2023-05-10T03:20:51;101660.28;;;8.30;52.15
21706;BME280;11014;53.076;18.208;2023-05-10T03:23:35;101655.34;;;8.33;52.66
21706;BME280;11014;53.076;18.208;2023-05-10T03:26:04;101655.09;;;8.28;52.63
21706;BME280;11014;53.076;18.208;2023-05-10T03:28:34;101645.44;;;8.27;52.74
21706;BME280;11014;53.076;18.208;2023-05-10T03:31:05;101657.63;;;8.30;52.51
21706;BME280;11014;53.076;18.208;2023-05-10T03:33:34;101652.88;;;8.32;52.81
21706;BME280;11014;53.076;18.208;2023-05-10T03:36:03;101659.06;;;8.32;52.63
21706;BME280;11014;53.076;18.208;2023-05-10T03:38:32;101656.19;;;8.34;52.94
21706;BME280;11014;53.076;18.208;2023-05-10T03:41:01;101654.97;;;8.37;53.03
21706;BME280;11014;53.076;18.208;2023-05-10T03:43:29;101648.41;;;8.39;53.33
21706;BME280;11014;53.076;18.208;2023-05-10T03:45:58;101654.22;;;8.43;52.86
21706;BME280;11014;53.076;18.208;2023-05-10T03:48:26;101651.63;;;8.49;52.80
21706;BME280;11014;53.076;18.208;2023-05-10T03:50:55;101652.72;;;8.55;53.14
21706;BME280;11014;53.076;18.208;2023-05-10T03:53:25;101658.31;;;8.60;52.82
21706;BME280;11014;53.076;18.208;2023-05-10T03:55:54;101644.16;;;8.66;52.93
21706;BME280;11014;53.076;18.208;2023-05-10T03:58:22;101639.22;;;8.69;52.92
21706;BME280;11014;53.076;18.208;2023-05-10T04:00:51;101647.06;;;8.71;52.78
21706;BME280;11014;53.076;18.208;2023-05-10T04:03:20;101643.63;;;8.77;52.97
21706;BME280;11014;53.076;18.208;2023-05-10T04:05:58;101646.81;;;8.93;53.02
21706;BME280;11014;53.076;18.208;2023-05-10T04:08:27;101648.56;;;9.01;52.70
21706;BME280;11014;53.076;18.208;2023-05-10T04:11:13;101652.56;;;9.18;52.64
21706;BME280;11014;53.076;18.208;2023-05-10T04:13:42;101658.59;;;9.20;52.36
21706;BME280;11014;53.076;18.208;2023-05-10T04:16:11;101650.38;;;9.28;51.91
21706;BME280;11014;53.076;18.208;2023-05-10T04:18:40;101643.44;;;9.40;51.77
21706;BME280;11014;53.076;18.208;2023-05-10T04:21:13;101641.66;;;9.54;51.77
21706;BME280;11014;53.076;18.208;2023-05-10T04:23:41;101632.50;;;9.83;51.27
21706;BME280;11014;53.076;18.208;2023-05-10T04:26:10;101634.31;;;9.76;50.97
21706;BME280;11014;53.076;18.208;2023-05-10T04:28:38;101635.38;;;9.81;51.13
21706;BME280;11014;53.076;18.208;2023-05-10T04:31:08;101641.59;;;9.88;51.15
21706;BME280;11014;53.076;18.208;2023-05-10T04:33:37;101639.13;;;10.00;50.80
21706;BME280;11014;53.076;18.208;2023-05-10T04:36:05;101640.47;;;10.17;50.63
21706;BME280;11014;53.076;18.208;2023-05-10T04:38:34;101632.88;;;10.27;50.11
21706;BME280;11014;53.076;18.208;2023-05-10T04:41:07;101631.84;;;10.41;49.74
21706;BME280;11014;53.076;18.208;2023-05-10T04:43:36;101630.63;;;10.50;49.45
21706;BME280;11014;53.076;18.208;2023-05-10T04:46:06;101633.72;;;10.60;49.23
21706;BME280;11014;53.076;18.208;2023-05-10T04:48:35;101626.88;;;10.71;49.38
21706;BME280;11014;53.076;18.208;2023-05-10T04:51:04;101628.34;;;10.80;48.77
21706;BME280;11014;53.076;18.208;2023-05-10T04:53:32;101626.88;;;10.91;48.42
21706;BME280;11014;53.076;18.208;2023-05-10T04:56:01;101623.56;;;11.02;48.30
21706;BME280;11014;53.076;18.208;2023-05-10T04:58:29;101624.00;;;11.12;47.71
21706;BME280;11014;53.076;18.208;2023-05-10T05:01:05;101622.28;;;11.24;47.73
21706;BME280;11014;53.076;18.208;2023-05-10T05:03:34;101631.81;;;11.33;47.70
21706;BME280;11014;53.076;18.208;2023-05-10T05:06:03;101621.00;;;11.46;47.18
21706;BME280;11014;53.076;18.208;2023-05-10T05:08:31;101627.16;;;11.60;46.91
21706;BME280;11014;53.076;18.208;2023-05-10T05:11:00;101633.78;;;11.70;46.27
21706;BME280;11014;53.076;18.208;2023-05-10T05:13:28;101623.38;;;11.80;46.05
21706;BME280;11014;53.076;18.208;2023-05-10T05:16:00;101620.63;;;11.94;46.03
21706;BME280;11014;53.076;18.208;2023-05-10T05:18:29;101625.34;;;12.05;45.71
21706;BME280;11014;53.076;18.208;2023-05-10T05:20:57;101623.19;;;12.13;45.34
21706;BME280;11014;53.076;18.208;2023-05-10T05:23:26;101627.28;;;12.22;45.42
21706;BME280;11014;53.076;18.208;2023-05-10T05:25:55;101624.72;;;12.34;45.58
21706;BME280;11014;53.076;18.208;2023-05-10T05:28:23;101626.72;;;12.45;45.10
21706;BME280;11014;53.076;18.208;2023-05-10T05:30:52;101618.53;;;12.58;45.12
21706;BME280;11014;53.076;18.208;2023-05-10T05:33:20;101621.97;;;12.72;44.62
21706;BME280;11014;53.076;18.208;2023-05-10T05:35:49;101615.00;;;12.82;44.61
21706;BME280;11014;53.076;18.208;2023-05-10T05:38:18;101615.13;;;12.94;44.20
21706;BME280;11014;53.076;18.208;2023-05-10T05:40:47;101617.94;;;13.05;43.63
21706;BME280;11014;53.076;18.208;2023-05-10T05:43:15;101612.41;;;13.19;43.35
21706;BME280;11014;53.076;18.208;2023-05-10T05:45:44;101625.75;;;13.32;42.56
21706;BME280;11014;53.076;18.208;2023-05-10T05:48:12;101619.63;;;13.43;42.78
21706;BME280;11014;53.076;18.208;2023-05-10T05:50:41;101608.66;;;13.56;42.77
21706;BME280;11014;53.076;18.208;2023-05-10T05:53:09;101613.09;;;13.69;42.18
21706;BME280;11014;53.076;18.208;2023-05-10T05:55:38;101608.56;;;13.81;41.15
21706;BME280;11014;53.076;18.208;2023-05-10T05:58:07;101617.56;;;13.93;40.97
21706;BME280;11014;53.076;18.208;2023-05-10T06:00:35;101621.34;;;14.03;40.64
21706;BME280;11014;53.076;18.208;2023-05-10T06:03:04;101621.16;;;14.16;40.38
21706;BME280;11014;53.076;18.208;2023-05-10T06:05:32;101612.03;;;14.29;40.40
21706;BME280;11014;53.076;18.208;2023-05-10T06:08:00;101609.97;;;14.43;39.59
21706;BME280;11014;53.076;18.208;2023-05-10T06:10:29;101617.28;;;14.54;39.46
21706;BME280;11014;53.076;18.208;2023-05-10T06:12:58;101620.03;;;14.65;39.27
21706;BME280;11014;53.076;18.208;2023-05-10T06:15:27;101613.22;;;14.74;38.87
21706;BME280;11014;53.076;18.208;2023-05-10T06:17:55;101621.56;;;14.84;38.80
21706;BME280;11014;53.076;18.208;2023-05-10T06:20:24;101610.78;;;14.96;38.50
21706;BME280;11014;53.076;18.208;2023-05-10T06:22:53;101616.41;;;15.06;38.57
21706;BME280;11014;53.076;18.208;2023-05-10T06:25:21;101612.88;;;15.17;37.69
21706;BME280;11014;53.076;18.208;2023-05-10T06:27:50;101611.22;;;15.28;38.00
21706;BME280;11014;53.076;18.208;2023-05-10T06:30:21;101619.06;;;15.41;37.96
21706;BME280;11014;53.076;18.208;2023-05-10T06:32:51;101613.91;;;15.51;37.45
21706;BME280;11014;53.076;18.208;2023-05-10T06:35:20;101611.19;;;15.63;37.51
21706;BME280;11014;53.076;18.208;2023-05-10T06:37:49;101615.50;;;15.75;37.08
21706;BME280;11014;53.076;18.208;2023-05-10T06:40:18;101619.81;;;15.88;37.43
21706;BME280;11014;53.076;18.208;2023-05-10T06:42:47;101613.53;;;15.99;36.96
21706;BME280;11014;53.076;18.208;2023-05-10T06:45:16;101612.66;;;16.10;37.08
21706;BME280;11014;53.076;18.208;2023-05-10T06:47:45;101616.63;;;16.19;36.15
21706;BME280;11014;53.076;18.208;2023-05-10T06:50:14;101616.78;;;16.29;35.75
21706;BME280;11014;53.076;18.208;2023-05-10T06:52:43;101609.34;;;16.36;35.11
21706;BME280;11014;53.076;18.208;2023-05-10T06:55:14;101614.94;;;16.46;35.76
21706;BME280;11014;53.076;18.208;2023-05-10T06:57:43;101618.09;;;16.55;35.81
21706;BME280;11014;53.076;18.208;2023-05-10T07:00:12;101614.97;;;16.63;35.55
21706;BME280;11014;53.076;18.208;2023-05-10T07:02:41;101611.59;;;16.73;34.94
21706;BME280;11014;53.076;18.208;2023-05-10T07:05:10;101611.19;;;16.81;35.31
21706;BME280;11014;53.076;18.208;2023-05-10T07:07:39;101614.06;;;16.91;34.68
21706;BME280;11014;53.076;18.208;2023-05-10T07:10:08;101612.00;;;16.98;34.84
21706;BME280;11014;53.076;18.208;2023-05-10T07:12:36;101614.06;;;17.07;34.79
21706;BME280;11014;53.076;18.208;2023-05-10T07:15:07;101605.78;;;17.19;34.34
21706;BME280;11014;53.076;18.208;2023-05-10T07:17:35;101606.75;;;17.30;34.44
21706;BME280;11014;53.076;18.208;2023-05-10T07:20:04;101608.78;;;17.39;34.50
21706;BME280;11014;53.076;18.208;2023-05-10T07:22:33;101610.00;;;17.48;34.13
21706;BME280;11014;53.076;18.208;2023-05-10T07:25:01;101610.97;;;17.59;33.30
21706;BME280;11014;53.076;18.208;2023-05-10T07:27:30;101610.78;;;17.65;33.58
21706;BME280;11014;53.076;18.208;2023-05-10T07:29:58;101606.50;;;17.69;33.64
21706;BME280;11014;53.076;18.208;2023-05-10T07:32:27;101607.09;;;17.76;33.21
21706;BME280;11014;53.076;18.208;2023-05-10T07:34:56;101609.88;;;17.82;32.98
21706;BME280;11014;53.076;18.208;2023-05-10T07:37:24;101605.09;;;17.89;32.79
21706;BME280;11014;53.076;18.208;2023-05-10T07:39:52;101601.91;;;17.97;33.54
21706;BME280;11014;53.076;18.208;2023-05-10T07:42:21;101612.88;;;18.07;32.67
21706;BME280;11014;53.076;18.208;2023-05-10T07:44:49;101600.47;;;18.16;32.17
21706;BME280;11014;53.076;18.208;2023-05-10T07:47:19;101616.88;;;18.26;32.91
21706;BME280;11014;53.076;18.208;2023-05-10T07:49:47;101598.47;;;18.33;32.22
21706;BME280;11014;53.076;18.208;2023-05-10T07:52:16;101608.31;;;18.39;32.29
21706;BME280;11014;53.076;18.208;2023-05-10T07:54:44;101602.72;;;18.51;32.09
21706;BME280;11014;53.076;18.208;2023-05-10T07:57:13;101599.81;;;18.57;31.52
21706;BME280;11014;53.076;18.208;2023-05-10T07:59:43;101605.00;;;18.64;31.70
21706;BME280;11014;53.076;18.208;2023-05-10T08:02:12;101607.00;;;18.73;31.35
21706;BME280;11014;53.076;18.208;2023-05-10T08:04:41;101610.88;;;18.82;31.40
21706;BME280;11014;53.076;18.208;2023-05-10T08:07:10;101604.38;;;18.88;31.80
21706;BME280;11014;53.076;18.208;2023-05-10T08:09:38;101605.00;;;18.96;30.98
21706;BME280;11014;53.076;18.208;2023-05-10T08:12:07;101603.91;;;19.02;30.53
21706;BME280;11014;53.076;18.208;2023-05-10T08:14:35;101598.25;;;19.08;31.11
21706;BME280;11014;53.076;18.208;2023-05-10T08:17:07;101590.41;;;19.17;30.86
21706;BME280;11014;53.076;18.208;2023-05-10T08:19:35;101586.34;;;19.19;30.25
21706;BME280;11014;53.076;18.208;2023-05-10T08:22:03;101594.00;;;19.27;30.02
21706;BME280;11014;53.076;18.208;2023-05-10T08:24:32;101594.56;;;19.34;30.93
21706;BME280;11014;53.076;18.208;2023-05-10T08:27:03;101602.03;;;19.44;30.44
21706;BME280;11014;53.076;18.208;2023-05-10T08:29:31;101585.72;;;19.54;29.60
21706;BME280;11014;53.076;18.208;2023-05-10T08:32:13;101595.31;;;19.62;29.77
21706;BME280;11014;53.076;18.208;2023-05-10T08:34:42;101592.06;;;19.70;29.79
21706;BME280;11014;53.076;18.208;2023-05-10T08:37:10;101598.34;;;19.75;30.17
21706;BME280;11014;53.076;18.208;2023-05-10T08:39:41;101591.81;;;19.81;29.10
21706;BME280;11014;53.076;18.208;2023-05-10T08:42:11;101599.44;;;19.84;29.14
21706;BME280;11014;53.076;18.208;2023-05-10T08:44:40;101589.13;;;19.91;28.84
21706;BME280;11014;53.076;18.208;2023-05-10T08:47:11;101591.56;;;19.98;30.29
21706;BME280;11014;53.076;18.208;2023-05-10T08:49:41;101586.69;;;20.05;30.02
21706;BME280;11014;53.076;18.208;2023-05-10T08:52:12;101601.97;;;20.11;28.47
21706;BME280;11014;53.076;18.208;2023-05-10T08:54:41;101592.72;;;20.17;28.53
21706;BME280;11014;53.076;18.208;2023-05-10T08:57:10;101585.88;;;20.20;28.91
21706;BME280;11014;53.076;18.208;2023-05-10T08:59:39;101584.00;;;20.25;29.28
21706;BME280;11014;53.076;18.208;2023-05-10T09:02:10;101588.09;;;20.33;29.47
21706;BME280;11014;53.076;18.208;2023-05-10T09:04:39;101586.50;;;20.42;29.67
21706;BME280;11014;53.076;18.208;2023-05-10T09:07:10;101592.50;;;20.49;29.61
21706;BME280;11014;53.076;18.208;2023-05-10T09:09:39;101591.69;;;20.58;29.37
21706;BME280;11014;53.076;18.208;2023-05-10T09:12:08;101595.22;;;20.64;29.93
21706;BME280;11014;53.076;18.208;2023-05-10T09:14:39;101585.41;;;20.68;28.17
21706;BME280;11014;53.076;18.208;2023-05-10T09:17:09;101582.69;;;20.68;28.95
21706;BME280;11014;53.076;18.208;2023-05-10T09:19:38;101591.94;;;20.77;29.22
21706;BME280;11014;53.076;18.208;2023-05-10T09:22:06;101591.94;;;20.87;28.34
21706;BME280;11014;53.076;18.208;2023-05-10T09:24:35;101580.44;;;20.90;27.99
21706;BME280;11014;53.076;18.208;2023-05-10T09:27:05;101580.19;;;20.92;27.99
21706;BME280;11014;53.076;18.208;2023-05-10T09:29:41;101583.16;;;21.00;27.78
21706;BME280;11014;53.076;18.208;2023-05-10T09:32:10;101591.06;;;21.02;28.27
21706;BME280;11014;53.076;18.208;2023-05-10T09:34:40;101582.63;;;21.08;28.24
21706;BME280;11014;53.076;18.208;2023-05-10T09:37:09;101588.59;;;21.20;28.53
21706;BME280;11014;53.076;18.208;2023-05-10T09:39:38;101574.94;;;21.25;27.28
21706;BME280;11014;53.076;18.208;2023-05-10T09:42:10;101580.09;;;21.32;28.94
21706;BME280;11014;53.076;18.208;2023-05-10T09:44:38;101572.16;;;21.36;28.74
21706;BME280;11014;53.076;18.208;2023-05-10T09:47:09;101570.50;;;21.40;28.29
21706;BME280;11014;53.076;18.208;2023-05-10T09:49:37;101581.97;;;21.47;28.47
21706;BME280;11014;53.076;18.208;2023-05-10T09:52:07;101568.28;;;21.52;27.90
21706;BME280;11014;53.076;18.208;2023-05-10T09:54:35;101578.63;;;21.60;27.72
21706;BME280;11014;53.076;18.208;2023-05-10T09:57:04;101579.13;;;21.67;27.10
21706;BME280;11014;53.076;18.208;2023-05-10T09:59:33;101576.41;;;21.72;28.34
21706;BME280;11014;53.076;18.208;2023-05-10T10:02:03;101575.84;;;21.70;26.75
21706;BME280;11014;53.076;18.208;2023-05-10T10:04:32;101568.75;;;21.69;27.05
21706;BME280;11014;53.076;18.208;2023-05-10T10:07:02;101568.97;;;21.72;27.57
21706;BME280;11014;53.076;18.208;2023-05-10T10:09:32;101567.59;;;21.75;26.54
21706;BME280;11014;53.076;18.208;2023-05-10T10:12:02;101564.84;;;21.80;27.73
21706;BME280;11014;53.076;18.208;2023-05-10T10:14:31;101562.91;;;21.85;28.37
21706;BME280;11014;53.076;18.208;2023-05-10T10:17:00;101557.16;;;21.92;29.59
21706;BME280;11014;53.076;18.208;2023-05-10T10:19:35;101556.00;;;21.98;29.11
21706;BME280;11014;53.076;18.208;2023-05-10T10:22:05;101562.78;;;22.06;29.06
21706;BME280;11014;53.076;18.208;2023-05-10T10:24:34;101562.53;;;22.07;27.12
21706;BME280;11014;53.076;18.208;2023-05-10T10:30:38;101550.94;;;22.20;26.63
21706;BME280;11014;53.076;18.208;2023-05-10T10:33:15;101549.91;;;22.11;27.71
21706;BME280;11014;53.076;18.208;2023-05-10T10:35:58;101549.34;;;22.14;28.01
21706;BME280;11014;53.076;18.208;2023-05-10T10:41:34;101551.31;;;22.42;26.97
21706;BME280;11014;53.076;18.208;2023-05-10T10:49:38;101551.81;;;22.44;27.78
21706;BME280;11014;53.076;18.208;2023-05-10T10:52:24;101538.03;;;22.55;28.37
21706;BME280;11014;53.076;18.208;2023-05-10T10:55:13;101526.50;;;22.58;28.38
21706;BME280;11014;53.076;18.208;2023-05-10T10:57:50;101541.31;;;22.57;27.38
21706;BME280;11014;53.076;18.208;2023-05-10T11:00:29;101528.16;;;22.59;27.90
21706;BME280;11014;53.076;18.208;2023-05-10T11:03:03;101530.06;;;22.63;27.75
21706;BME280;11014;53.076;18.208;2023-05-10T11:05:39;101531.34;;;22.71;27.25
21706;BME280;11014;53.076;18.208;2023-05-10T11:10:53;101521.69;;;22.78;27.97
21706;BME280;11014;53.076;18.208;2023-05-10T11:13:37;101530.38;;;22.85;27.02
21706;BME280;11014;53.076;18.208;2023-05-10T11:16:24;101522.41;;;22.89;26.45
21706;BME280;11014;53.076;18.208;2023-05-10T11:19:05;101527.31;;;22.92;27.41
21706;BME280;11014;53.076;18.208;2023-05-10T11:21:45;101528.28;;;23.01;26.41
21706;BME280;11014;53.076;18.208;2023-05-10T11:24:17;101515.69;;;23.00;27.59
21706;BME280;11014;53.076;18.208;2023-05-10T11:26:46;101510.75;;;23.02;26.84
21706;BME280;11014;53.076;18.208;2023-05-10T11:29:17;101518.38;;;23.05;28.48
21706;BME280;11014;53.076;18.208;2023-05-10T11:31:47;101512.00;;;23.10;26.76
21706;BME280;11014;53.076;18.208;2023-05-10T11:34:29;101511.09;;;23.19;27.09
21706;BME280;11014;53.076;18.208;2023-05-10T11:37:06;101515.44;;;23.20;26.50
21706;BME280;11014;53.076;18.208;2023-05-10T11:39:34;101511.28;;;23.23;26.89
21706;BME280;11014;53.076;18.208;2023-05-10T11:42:03;101505.47;;;23.29;27.06
21706;BME280;11014;53.076;18.208;2023-05-10T11:44:32;101518.25;;;23.39;27.08
21706;BME280;11014;53.076;18.208;2023-05-10T11:47:01;101506.25;;;23.53;26.43
21706;BME280;11014;53.076;18.208;2023-05-10T11:49:30;101509.91;;;23.68;26.23
21706;BME280;11014;53.076;18.208;2023-05-10T11:52:08;101507.84;;;23.78;25.85
21706;BME280;11014;53.076;18.208;2023-05-10T11:54:37;101509.16;;;23.81;26.28
21706;BME280;11014;53.076;18.208;2023-05-10T11:57:05;101505.00;;;23.83;25.93
21706;BME280;11014;53.076;18.208;2023-05-10T11:59:34;101505.81;;;23.84;26.76
21706;BME280;11014;53.076;18.208;2023-05-10T12:02:02;101492.63;;;23.86;24.98
21706;BME280;11014;53.076;18.208;2023-05-10T12:04:31;101492.09;;;23.84;24.25
21706;BME280;11014;53.076;18.208;2023-05-10T12:07:00;101504.81;;;23.80;24.76
21706;BME280;11014;53.076;18.208;2023-05-10T12:09:29;101498.09;;;23.86;24.25
21706;BME280;11014;53.076;18.208;2023-05-10T12:12:15;101501.31;;;24.11;24.21
21706;BME280;11014;53.076;18.208;2023-05-10T12:14:48;101516.03;;;23.97;24.98
21706;BME280;11014;53.076;18.208;2023-05-10T12:17:17;101506.47;;;24.13;25.25
21706;BME280;11014;53.076;18.208;2023-05-10T12:19:45;101506.16;;;24.79;23.91
21706;BME280;11014;53.076;18.208;2023-05-10T12:22:15;101507.47;;;25.85;22.11
21706;BME280;11014;53.076;18.208;2023-05-10T12:24:45;101506.91;;;26.94;22.30
21706;BME280;11014;53.076;18.208;2023-05-10T12:27:14;101500.94;;;27.92;21.61
21706;BME280;11014;53.076;18.208;2023-05-10T12:29:43;101493.50;;;28.73;20.14
21706;BME280;11014;53.076;18.208;2023-05-10T12:32:14;101507.66;;;29.88;20.05
21706;BME280;11014;53.076;18.208;2023-05-10T12:34:42;101497.09;;;30.35;19.41
21706;BME280;11014;53.076;18.208;2023-05-10T12:37:12;101487.53;;;31.02;18.36
21706;BME280;11014;53.076;18.208;2023-05-10T12:39:42;101495.13;;;31.93;17.82
21706;BME280;11014;53.076;18.208;2023-05-10T12:42:11;101483.53;;;32.94;17.48
21706;BME280;11014;53.076;18.208;2023-05-10T12:44:39;101479.78;;;33.71;16.93
21706;BME280;11014;53.076;18.208;2023-05-10T12:47:08;101499.00;;;34.15;16.02
21706;BME280;11014;53.076;18.208;2023-05-10T12:49:36;101483.56;;;34.63;16.18
21706;BME280;11014;53.076;18.208;2023-05-10T12:52:05;101483.16;;;35.09;15.09
21706;BME280;11014;53.076;18.208;2023-05-10T12:54:33;101474.88;;;35.43;14.55
21706;BME280;11014;53.076;18.208;2023-05-10T12:57:02;101478.84;;;35.68;14.45
21706;BME280;11014;53.076;18.208;2023-05-10T12:59:30;101473.22;;;36.01;14.27
21706;BME280;11014;53.076;18.208;2023-05-10T13:01:59;101467.50;;;36.24;14.22
21706;BME280;11014;53.076;18.208;2023-05-10T13:04:27;101464.06;;;36.41;14.80
21706;BME280;11014;53.076;18.208;2023-05-10T13:06:56;101459.91;;;36.65;13.91
21706;BME280;11014;53.076;18.208;2023-05-10T13:09:28;101463.25;;;36.84;13.49
21706;BME280;11014;53.076;18.208;2023-05-10T13:11:58;101470.13;;;36.91;13.77
21706;BME280;11014;53.076;18.208;2023-05-10T13:14:26;101457.09;;;37.12;13.60
21706;BME280;11014;53.076;18.208;2023-05-10T13:16:56;101467.97;;;37.28;13.77
21706;BME280;11014;53.076;18.208;2023-05-10T13:19:25;101472.16;;;37.59;13.83
21706;BME280;11014;53.076;18.208;2023-05-10T13:21:54;101467.44;;;37.73;13.09
21706;BME280;11014;53.076;18.208;2023-05-10T13:24:23;101456.66;;;37.86;12.81
21706;BME280;11014;53.076;18.208;2023-05-10T13:26:52;101453.00;;;37.82;13.08
21706;BME280;11014;53.076;18.208;2023-05-10T13:29:20;101460.25;;;37.83;12.78
21706;BME280;11014;53.076;18.208;2023-05-10T13:31:53;101468.22;;;37.77;13.39
21706;BME280;11014;53.076;18.208;2023-05-10T13:34:25;101443.41;;;37.76;13.13